sensor_id;sensor_type;location;lat;lon;timestamp;pressure;altitude;pressure_sealevel;temperature;humidity
59053;BME280;44843;44.728;10.396;2023-02-17T00:01:19;101801.13;;;6.29;nan
59053;BME280;44843;44.728;10.396;2023-02-17T00:03:45;101800.31;;;6.27;nan
59053;BME280;44843;44.728;10.396;2023-02-17T00:06:14;101798.00;;;6.10;nan
59053;BME280;44843;44.728;10.396;2023-02-17T00:08:40;101791.88;;;6.14;nan
59053;BME280;44843;44.728;10.396;2023-02-17T00:11:05;101800.84;;;5.94;nan
59053;BME280;44843;44.728;10.396;2023-02-17T00:13:31;101804.25;;;6.00;nan
59053;BME280;44843;44.728;10.396;2023-02-17T00:15:56;101801.66;;;6.00;nan
59053;BME280;44843;44.728;10.396;2023-02-17T00:18:21;101799.84;;;6.03;nan
59053;BME280;44843;44.728;10.396;2023-02-17T00:20:47;101804.28;;;5.96;nan
59053;BME280;44843;44.728;10.396;2023-02-17T00:23:12;101789.78;;;5.85;nan
59053;BME280;44843;44.728;10.396;2023-02-17T00:25:37;101797.63;;;5.78;nan
59053;BME280;44843;44.728;10.396;2023-02-17T00:28:03;101794.28;;;5.72;nan
59053;BME280;44843;44.728;10.396;2023-02-17T00:30:28;101792.63;;;5.68;nan
59053;BME280;44843;44.728;10.396;2023-02-17T00:32:54;101790.91;;;5.67;nan
59053;BME280;44843;44.728;10.396;2023-02-17T00:35:19;101789.16;;;5.69;nan
59053;BME280;44843;44.728;10.396;2023-02-17T00:37:44;101790.91;;;5.67;nan
59053;BME280;44843;44.728;10.396;2023-02-17T00:40:10;101805.56;;;5.68;nan
59053;BME280;44843;44.728;10.396;2023-02-17T00:42:35;101806.38;;;5.70;nan
59053;BME280;44843;44.728;10.396;2023-02-17T00:45:01;101801.13;;;5.76;nan
59053;BME280;44843;44.728;10.396;2023-02-17T00:47:26;101793.22;;;5.84;nan
59053;BME280;44843;44.728;10.396;2023-02-17T00:49:51;101804.31;;;5.93;nan
59053;BME280;44843;44.728;10.396;2023-02-17T00:52:16;101804.06;;;6.09;nan
59053;BME280;44843;44.728;10.396;2023-02-17T00:54:41;101800.66;;;6.05;nan
59053;BME280;44843;44.728;10.396;2023-02-17T00:57:07;101800.13;;;5.85;nan
59053;BME280;44843;44.728;10.396;2023-02-17T00:59:32;101806.38;;;5.70;nan
59053;BME280;44843;44.728;10.396;2023-02-17T01:01:57;101808.34;;;5.55;nan
59053;BME280;44843;44.728;10.396;2023-02-17T01:04:22;101797.94;;;5.58;nan
59053;BME280;44843;44.728;10.396;2023-02-17T01:06:48;101802.19;;;5.64;nan
59053;BME280;44843;44.728;10.396;2023-02-17T01:09:13;101803.97;;;5.59;nan
59053;BME280;44843;44.728;10.396;2023-02-17T01:11:39;101804.94;;;5.52;nan
59053;BME280;44843;44.728;10.396;2023-02-17T01:14:09;101798.72;;;5.64;nan
59053;BME280;44843;44.728;10.396;2023-02-17T01:16:36;101800.50;;;5.60;nan
59053;BME280;44843;44.728;10.396;2023-02-17T01:19:06;101799.69;;;5.56;nan
59053;BME280;44843;44.728;10.396;2023-02-17T01:21:32;101801.59;;;5.45;nan
59053;BME280;44843;44.728;10.396;2023-02-17T01:23:59;101793.16;;;5.31;nan
59053;BME280;44843;44.728;10.396;2023-02-17T01:26:25;101798.31;;;5.31;nan
59053;BME280;44843;44.728;10.396;2023-02-17T01:28:51;101793.16;;;5.31;nan
59053;BME280;44843;44.728;10.396;2023-02-17T01:31:17;101794.84;;;5.33;nan
59053;BME280;44843;44.728;10.396;2023-02-17T01:33:42;101787.97;;;5.32;nan
59053;BME280;44843;44.728;10.396;2023-02-17T01:36:08;101787.06;;;5.33;nan
59053;BME280;44843;44.728;10.396;2023-02-17T01:38:34;101789.63;;;5.38;nan
59053;BME280;44843;44.728;10.396;2023-02-17T01:41:00;101785.41;;;5.31;nan
59053;BME280;44843;44.728;10.396;2023-02-17T01:43:25;101777.75;;;5.25;nan
59053;BME280;44843;44.728;10.396;2023-02-17T01:45:54;101772.63;;;5.20;nan
59053;BME280;44843;44.728;10.396;2023-02-17T01:48:21;101780.28;;;5.28;nan
59053;BME280;44843;44.728;10.396;2023-02-17T01:50:51;101772.50;;;5.29;nan
59053;BME280;44843;44.728;10.396;2023-02-17T01:53:21;101778.50;;;5.31;nan
59053;BME280;44843;44.728;10.396;2023-02-17T01:55:49;101769.16;;;5.23;nan
59053;BME280;44843;44.728;10.396;2023-02-17T01:58:18;101775.25;;;5.19;nan
59053;BME280;44843;44.728;10.396;2023-02-17T02:00:47;101771.06;;;5.08;nan
59053;BME280;44843;44.728;10.396;2023-02-17T02:03:15;101765.97;;;5.02;nan
59053;BME280;44843;44.728;10.396;2023-02-17T02:05:41;101764.28;;;5.00;nan
59053;BME280;44843;44.728;10.396;2023-02-17T02:08:08;101758.34;;;4.93;nan
59053;BME280;44843;44.728;10.396;2023-02-17T02:10:34;101756.66;;;4.90;nan
59053;BME280;44843;44.728;10.396;2023-02-17T02:12:59;101760.91;;;4.93;nan
59053;BME280;44843;44.728;10.396;2023-02-17T02:15:30;101766.13;;;4.90;nan
59053;BME280;44843;44.728;10.396;2023-02-17T02:29:07;101770.38;;;4.94;nan
59053;BME280;44843;44.728;10.396;2023-02-17T02:31:50;101764.56;;;4.77;nan
59053;BME280;44843;44.728;10.396;2023-02-17T02:34:22;101764.72;;;4.66;nan
59053;BME280;44843;44.728;10.396;2023-02-17T02:36:55;101766.50;;;4.59;nan
59053;BME280;44843;44.728;10.396;2023-02-17T02:39:30;101766.53;;;4.58;nan
59053;BME280;44843;44.728;10.396;2023-02-17T02:42:04;101767.44;;;4.53;nan
59053;BME280;44843;44.728;10.396;2023-02-17T02:44:32;101767.41;;;4.55;nan
59053;BME280;44843;44.728;10.396;2023-02-17T02:46:59;101765.56;;;4.66;nan
59053;BME280;44843;44.728;10.396;2023-02-17T02:49:26;101766.41;;;4.68;nan
59053;BME280;44843;44.728;10.396;2023-02-17T02:52:20;101762.94;;;4.68;nan
59053;BME280;44843;44.728;10.396;2023-02-17T02:54:54;101768.09;;;4.69;nan
59053;BME280;44843;44.728;10.396;2023-02-17T02:57:33;101766.47;;;4.64;nan
59053;BME280;44843;44.728;10.396;2023-02-17T03:02:47;101763.13;;;4.52;nan
59053;BME280;44843;44.728;10.396;2023-02-17T03:05:24;101770.88;;;4.52;nan
59053;BME280;44843;44.728;10.396;2023-02-17T03:08:03;101759.72;;;4.49;nan
59053;BME280;44843;44.728;10.396;2023-02-17T03:10:32;101764.91;;;4.49;nan
59053;BME280;44843;44.728;10.396;2023-02-17T03:13:00;101760.69;;;4.40;nan
59053;BME280;44843;44.728;10.396;2023-02-17T03:15:31;101765.91;;;4.36;nan
59053;BME280;44843;44.728;10.396;2023-02-17T03:17:58;101768.44;;;4.39;nan
59053;BME280;44843;44.728;10.396;2023-02-17T03:20:26;101770.22;;;4.33;nan
59053;BME280;44843;44.728;10.396;2023-02-17T03:22:52;101767.59;;;4.35;nan
59053;BME280;44843;44.728;10.396;2023-02-17T03:25:17;101765.06;;;4.33;nan
59053;BME280;44843;44.728;10.396;2023-02-17T03:27:43;101764.06;;;4.44;nan
59053;BME280;44843;44.728;10.396;2023-02-17T03:30:09;101768.44;;;4.39;nan
59053;BME280;44843;44.728;10.396;2023-02-17T03:32:35;101767.50;;;4.46;nan
59053;BME280;44843;44.728;10.396;2023-02-17T03:35:01;101762.44;;;4.38;nan
59053;BME280;44843;44.728;10.396;2023-02-17T03:37:26;101762.41;;;4.40;nan
59053;BME280;44843;44.728;10.396;2023-02-17T03:39:51;101756.38;;;4.42;nan
59053;BME280;44843;44.728;10.396;2023-02-17T03:42:17;101760.63;;;4.46;nan
59053;BME280;44843;44.728;10.396;2023-02-17T03:44:42;101760.53;;;4.52;nan
59053;BME280;44843;44.728;10.396;2023-02-17T03:47:07;101766.41;;;4.65;nan
59053;BME280;44843;44.728;10.396;2023-02-17T03:49:33;101761.38;;;4.56;nan
59053;BME280;44843;44.728;10.396;2023-02-17T03:51:58;101768.28;;;4.52;nan
59053;BME280;44843;44.728;10.396;2023-02-17T03:54:25;101769.22;;;4.47;nan
59053;BME280;44843;44.728;10.396;2023-02-17T03:56:50;101770.19;;;4.37;nan
59053;BME280;44843;44.728;10.396;2023-02-17T03:59:16;101777.03;;;4.41;nan
59053;BME280;44843;44.728;10.396;2023-02-17T04:01:41;101782.28;;;4.33;nan
59053;BME280;44843;44.728;10.396;2023-02-17T04:04:06;101781.44;;;4.31;nan
59053;BME280;44843;44.728;10.396;2023-02-17T04:06:32;101774.59;;;4.25;nan
59053;BME280;44843;44.728;10.396;2023-02-17T04:08:57;101782.34;;;4.27;nan
59053;BME280;44843;44.728;10.396;2023-02-17T04:11:22;101780.59;;;4.27;nan
59053;BME280;44843;44.728;10.396;2023-02-17T04:13:48;101791.94;;;4.11;nan
59053;BME280;44843;44.728;10.396;2023-02-17T04:16:13;101785.03;;;4.18;nan
59053;BME280;44843;44.728;10.396;2023-02-17T04:18:38;101785.84;;;4.21;nan
59053;BME280;44843;44.728;10.396;2023-02-17T04:21:04;101785.94;;;4.12;nan
59053;BME280;44843;44.728;10.396;2023-02-17T04:23:30;101788.50;;;4.10;nan
59053;BME280;44843;44.728;10.396;2023-02-17T04:25:55;101783.41;;;4.04;nan
59053;BME280;44843;44.728;10.396;2023-02-17T04:28:21;101791.19;;;4.00;nan
59053;BME280;44843;44.728;10.396;2023-02-17T04:30:48;101790.19;;;4.13;nan
59053;BME280;44843;44.728;10.396;2023-02-17T04:33:14;101791.00;;;4.21;nan
59053;BME280;44843;44.728;10.396;2023-02-17T04:35:40;101796.09;;;4.27;nan
59053;BME280;44843;44.728;10.396;2023-02-17T04:38:06;101792.56;;;4.36;nan
59053;BME280;44843;44.728;10.396;2023-02-17T04:40:32;101800.31;;;4.38;nan
59053;BME280;44843;44.728;10.396;2023-02-17T04:42:58;101794.16;;;4.48;nan
59053;BME280;44843;44.728;10.396;2023-02-17T04:45:23;101796.78;;;4.45;nan
59053;BME280;44843;44.728;10.396;2023-02-17T04:47:49;101800.38;;;4.31;nan
59053;BME280;44843;44.728;10.396;2023-02-17T04:50:15;101801.28;;;4.26;nan
59053;BME280;44843;44.728;10.396;2023-02-17T04:52:40;101795.31;;;4.22;nan
59053;BME280;44843;44.728;10.396;2023-02-17T04:55:06;101804.00;;;4.10;nan
59053;BME280;44843;44.728;10.396;2023-02-17T04:57:32;101804.00;;;4.13;nan
59053;BME280;44843;44.728;10.396;2023-02-17T04:59:58;101802.31;;;4.08;nan
59053;BME280;44843;44.728;10.396;2023-02-17T05:02:23;101800.56;;;4.08;nan
59053;BME280;44843;44.728;10.396;2023-02-17T05:04:51;101790.25;;;4.10;nan
59053;BME280;44843;44.728;10.396;2023-02-17T05:07:17;101791.97;;;4.08;nan
59053;BME280;44843;44.728;10.396;2023-02-17T05:09:43;101791.13;;;4.09;nan
59053;BME280;44843;44.728;10.396;2023-02-17T05:12:08;101794.66;;;3.99;nan
59053;BME280;44843;44.728;10.396;2023-02-17T05:14:33;101788.53;;;4.09;nan
59053;BME280;44843;44.728;10.396;2023-02-17T05:16:59;101794.53;;;4.11;nan
59053;BME280;44843;44.728;10.396;2023-02-17T05:19:24;101800.56;;;4.08;nan
59053;BME280;44843;44.728;10.396;2023-02-17T05:21:49;101791.03;;;4.15;nan
59053;BME280;44843;44.728;10.396;2023-02-17T05:24:16;101794.59;;;4.02;nan
59053;BME280;44843;44.728;10.396;2023-02-17T05:26:41;101793.75;;;4.00;nan
59053;BME280;44843;44.728;10.396;2023-02-17T05:29:07;101790.38;;;3.93;nan
59053;BME280;44843;44.728;10.396;2023-02-17T05:31:32;101798.13;;;3.96;nan
59053;BME280;44843;44.728;10.396;2023-02-17T05:33:57;101800.69;;;3.95;nan
59053;BME280;44843;44.728;10.396;2023-02-17T05:36:23;101798.97;;;3.98;nan
59053;BME280;44843;44.728;10.396;2023-02-17T05:38:48;101800.66;;;3.98;nan
59053;BME280;44843;44.728;10.396;2023-02-17T05:41:15;101804.94;;;4.02;nan
59053;BME280;44843;44.728;10.396;2023-02-17T05:43:41;101802.38;;;4.00;nan
59053;BME280;44843;44.728;10.396;2023-02-17T05:46:07;101799.75;;;4.05;nan
59053;BME280;44843;44.728;10.396;2023-02-17T05:48:32;101806.53;;;4.15;nan
59053;BME280;44843;44.728;10.396;2023-02-17T05:50:58;101805.69;;;4.18;nan
59053;BME280;44843;44.728;10.396;2023-02-17T05:53:23;101801.47;;;4.06;nan
59053;BME280;44843;44.728;10.396;2023-02-17T05:55:49;101807.47;;;4.06;nan
59053;BME280;44843;44.728;10.396;2023-02-17T05:58:14;101802.34;;;4.05;nan
59053;BME280;44843;44.728;10.396;2023-02-17T06:00:39;101801.47;;;4.07;nan
59053;BME280;44843;44.728;10.396;2023-02-17T06:03:05;101801.44;;;4.09;nan
59053;BME280;44843;44.728;10.396;2023-02-17T06:05:30;101806.63;;;4.04;nan
59053;BME280;44843;44.728;10.396;2023-02-17T06:07:56;101798.03;;;4.02;nan
59053;BME280;44843;44.728;10.396;2023-02-17T06:10:21;101801.50;;;4.00;nan
59053;BME280;44843;44.728;10.396;2023-02-17T06:12:46;101813.59;;;3.96;nan
59053;BME280;44843;44.728;10.396;2023-02-17T06:15:12;101820.50;;;3.94;nan
59053;BME280;44843;44.728;10.396;2023-02-17T06:17:37;101817.06;;;3.92;nan
59053;BME280;44843;44.728;10.396;2023-02-17T06:20:03;101822.22;;;3.90;nan
59053;BME280;44843;44.728;10.396;2023-02-17T06:22:29;101817.91;;;3.91;nan
59053;BME280;44843;44.728;10.396;2023-02-17T06:24:54;101823.13;;;3.89;nan
59053;BME280;44843;44.728;10.396;2023-02-17T06:27:20;101814.53;;;3.87;nan
59053;BME280;44843;44.728;10.396;2023-02-17T06:29:45;101818.59;;;4.18;nan
59053;BME280;44843;44.728;10.396;2023-02-17T06:32:10;101821.84;;;4.35;nan
59053;BME280;44843;44.728;10.396;2023-02-17T06:34:36;101817.53;;;4.37;nan
59053;BME280;44843;44.728;10.396;2023-02-17T06:37:01;101828.72;;;4.38;nan
59053;BME280;44843;44.728;10.396;2023-02-17T06:39:26;101832.25;;;4.27;nan
59053;BME280;44843;44.728;10.396;2023-02-17T06:41:52;101827.00;;;4.37;nan
59053;BME280;44843;44.728;10.396;2023-02-17T06:44:17;101838.22;;;4.32;nan
59053;BME280;44843;44.728;10.396;2023-02-17T06:46:42;101840.69;;;4.45;nan
59053;BME280;44843;44.728;10.396;2023-02-17T06:49:10;101849.31;;;4.44;nan
59053;BME280;44843;44.728;10.396;2023-02-17T06:51:36;101845.78;;;4.54;nan
59053;BME280;44843;44.728;10.396;2023-02-17T06:54:01;101854.28;;;4.65;nan
59053;BME280;44843;44.728;10.396;2023-02-17T06:56:27;101850.00;;;4.64;nan
59053;BME280;44843;44.728;10.396;2023-02-17T06:58:52;101862.84;;;4.70;nan
59053;BME280;44843;44.728;10.396;2023-02-17T07:01:20;101854.09;;;4.81;nan
59053;BME280;44843;44.728;10.396;2023-02-17T07:03:46;101848.81;;;4.93;nan
59053;BME280;44843;44.728;10.396;2023-02-17T07:06:12;101843.63;;;4.93;nan
59053;BME280;44843;44.728;10.396;2023-02-17T07:08:37;101852.97;;;5.06;nan
59053;BME280;44843;44.728;10.396;2023-02-17T07:11:07;101847.84;;;5.03;nan
59053;BME280;44843;44.728;10.396;2023-02-17T07:13:33;101851.94;;;5.20;nan
59053;BME280;44843;44.728;10.396;2023-02-17T07:15:59;101849.13;;;5.36;nan
59053;BME280;44843;44.728;10.396;2023-02-17T07:18:24;101850.75;;;5.45;nan
59053;BME280;44843;44.728;10.396;2023-02-17T07:20:49;101853.97;;;5.63;nan
59053;BME280;44843;44.728;10.396;2023-02-17T07:23:15;101864.09;;;5.75;nan
59053;BME280;44843;44.728;10.396;2023-02-17T07:25:41;101863.84;;;5.93;nan
59053;BME280;44843;44.728;10.396;2023-02-17T07:28:06;101854.06;;;6.14;nan
59053;BME280;44843;44.728;10.396;2023-02-17T07:30:36;101858.19;;;6.26;nan
59053;BME280;44843;44.728;10.396;2023-02-17T07:33:02;101857.19;;;6.33;nan
59053;BME280;44843;44.728;10.396;2023-02-17T07:35:28;101859.72;;;6.36;nan
59053;BME280;44843;44.728;10.396;2023-02-17T07:37:56;101852.66;;;6.46;nan
59053;BME280;44843;44.728;10.396;2023-02-17T07:40:21;101850.00;;;6.49;nan
59053;BME280;44843;44.728;10.396;2023-02-17T07:42:46;101852.59;;;6.49;nan
59053;BME280;44843;44.728;10.396;2023-02-17T07:45:12;101856.66;;;6.62;nan
59053;BME280;44843;44.728;10.396;2023-02-17T07:47:37;101866.91;;;6.71;nan
59053;BME280;44843;44.728;10.396;2023-02-17T07:50:03;101858.94;;;6.80;nan
59053;BME280;44843;44.728;10.396;2023-02-17T07:52:28;101865.59;;;6.94;nan
59053;BME280;44843;44.728;10.396;2023-02-17T07:54:53;101867.06;;;7.07;nan
59053;BME280;44843;44.728;10.396;2023-02-17T07:57:19;101867.72;;;7.17;nan
59053;BME280;44843;44.728;10.396;2023-02-17T07:59:45;101870.97;;;7.28;nan
59053;BME280;44843;44.728;10.396;2023-02-17T08:02:11;101866.28;;;7.44;nan
59053;BME280;44843;44.728;10.396;2023-02-17T08:04:36;101873.06;;;7.51;nan
59053;BME280;44843;44.728;10.396;2023-02-17T08:07:01;101881.41;;;7.66;nan
59053;BME280;44843;44.728;10.396;2023-02-17T08:09:27;101882.00;;;7.77;nan
59053;BME280;44843;44.728;10.396;2023-02-17T08:12:16;101880.00;;;7.90;nan
59053;BME280;44843;44.728;10.396;2023-02-17T08:15:00;101884.81;;;8.05;nan
59053;BME280;44843;44.728;10.396;2023-02-17T08:17:27;101878.06;;;8.34;nan
59053;BME280;44843;44.728;10.396;2023-02-17T08:19:53;101876.03;;;8.47;nan
59053;BME280;44843;44.728;10.396;2023-02-17T08:22:18;101868.13;;;8.82;nan
59053;BME280;44843;44.728;10.396;2023-02-17T08:24:44;101858.75;;;9.08;nan
59053;BME280;44843;44.728;10.396;2023-02-17T08:27:09;101865.72;;;9.07;nan
59053;BME280;44843;44.728;10.396;2023-02-17T08:29:35;101857.78;;;9.12;nan
59053;BME280;44843;44.728;10.396;2023-02-17T08:32:00;101862.69;;;9.23;nan
59053;BME280;44843;44.728;10.396;2023-02-17T08:34:26;101858.38;;;9.20;nan
59053;BME280;44843;44.728;10.396;2023-02-17T08:36:52;101860.31;;;9.14;nan
59053;BME280;44843;44.728;10.396;2023-02-17T08:39:17;101874.91;;;9.19;nan
59053;BME280;44843;44.728;10.396;2023-02-17T08:41:43;101865.03;;;9.31;nan
59053;BME280;44843;44.728;10.396;2023-02-17T08:44:13;101867.56;;;9.34;nan
59053;BME280;44843;44.728;10.396;2023-02-17T08:46:39;101863.78;;;9.44;nan
59053;BME280;44843;44.728;10.396;2023-02-17T08:49:05;101867.34;;;9.40;nan
59053;BME280;44843;44.728;10.396;2023-02-17T08:51:31;101868.97;;;9.44;nan
59053;BME280;44843;44.728;10.396;2023-02-17T08:53:58;101872.53;;;9.41;nan
59053;BME280;44843;44.728;10.396;2023-02-17T08:56:24;101876.72;;;9.47;nan
59053;BME280;44843;44.728;10.396;2023-02-17T08:58:50;101869.50;;;9.55;nan
59053;BME280;44843;44.728;10.396;2023-02-17T09:01:16;101862.78;;;9.48;nan
59053;BME280;44843;44.728;10.396;2023-02-17T09:03:43;101875.59;;;9.56;nan
59053;BME280;44843;44.728;10.396;2023-02-17T09:06:09;101882.44;;;9.58;nan
59053;BME280;44843;44.728;10.396;2023-02-17T09:08:34;101887.38;;;9.67;nan
59053;BME280;44843;44.728;10.396;2023-02-17T09:11:00;101881.13;;;9.73;nan
59053;BME280;44843;44.728;10.396;2023-02-17T09:13:25;101888.63;;;9.84;nan
59053;BME280;44843;44.728;10.396;2023-02-17T09:15:51;101882.78;;;10.04;nan
59053;BME280;44843;44.728;10.396;2023-02-17T09:18:18;101887.91;;;10.34;nan
59053;BME280;44843;44.728;10.396;2023-02-17T09:20:43;101891.31;;;10.36;nan
59053;BME280;44843;44.728;10.396;2023-02-17T09:23:08;101892.91;;;10.40;nan
59053;BME280;44843;44.728;10.396;2023-02-17T09:25:33;101894.72;;;10.38;nan
59053;BME280;44843;44.728;10.396;2023-02-17T09:27:59;101891.25;;;10.37;nan
59053;BME280;44843;44.728;10.396;2023-02-17T09:30:24;101888.94;;;10.28;nan
59053;BME280;44843;44.728;10.396;2023-02-17T09:32:49;101895.78;;;10.32;nan
59053;BME280;44843;44.728;10.396;2023-02-17T09:35:16;101894.16;;;10.28;nan
59053;BME280;44843;44.728;10.396;2023-02-17T09:37:41;101890.47;;;10.35;nan
59053;BME280;44843;44.728;10.396;2023-02-17T09:40:07;101892.59;;;10.22;nan
59053;BME280;44843;44.728;10.396;2023-02-17T09:42:35;101900.13;;;10.31;nan
59053;BME280;44843;44.728;10.396;2023-02-17T09:45:09;101894.16;;;10.28;nan
59053;BME280;44843;44.728;10.396;2023-02-17T09:47:37;101895.63;;;10.37;nan
59053;BME280;44843;44.728;10.396;2023-02-17T09:50:09;101889.69;;;10.31;nan
59053;BME280;44843;44.728;10.396;2023-02-17T09:55:16;101888.53;;;10.40;nan
59053;BME280;44843;44.728;10.396;2023-02-17T09:57:48;101889.47;;;10.39;nan
59053;BME280;44843;44.728;10.396;2023-02-17T10:00:16;101888.84;;;10.31;nan
59053;BME280;44843;44.728;10.396;2023-02-17T10:05:28;101889.47;;;10.39;nan
59053;BME280;44843;44.728;10.396;2023-02-17T10:08:00;101887.22;;;10.54;nan
59053;BME280;44843;44.728;10.396;2023-02-17T10:10:28;101896.31;;;10.67;nan
59053;BME280;44843;44.728;10.396;2023-02-17T10:12:54;101894.22;;;10.78;nan
59053;BME280;44843;44.728;10.396;2023-02-17T10:15:24;101898.66;;;11.00;nan
59053;BME280;44843;44.728;10.396;2023-02-17T10:17:56;101896.22;;;11.19;nan
59053;BME280;44843;44.728;10.396;2023-02-17T10:20:27;101893.56;;;11.20;nan
59053;BME280;44843;44.728;10.396;2023-02-17T10:22:56;101891.69;;;11.24;nan
59053;BME280;44843;44.728;10.396;2023-02-17T10:28:11;101881.94;;;11.29;nan
59053;BME280;44843;44.728;10.396;2023-02-17T10:30:42;101888.34;;;10.97;nan
59053;BME280;44843;44.728;10.396;2023-02-17T10:35:40;101880.38;;;11.00;nan
59053;BME280;44843;44.728;10.396;2023-02-17T10:38:18;101878.66;;;11.00;nan
59053;BME280;44843;44.728;10.396;2023-02-17T10:40:49;101877.22;;;10.91;nan
59053;BME280;44843;44.728;10.396;2023-02-17T10:43:19;101878.00;;;10.93;nan
59053;BME280;44843;44.728;10.396;2023-02-17T10:45:46;101873.63;;;10.94;nan
59053;BME280;44843;44.728;10.396;2023-02-17T10:50:42;101871.81;;;10.96;nan
59053;BME280;44843;44.728;10.396;2023-02-17T10:53:41;101867.44;;;10.97;nan
59053;BME280;44843;44.728;10.396;2023-02-17T10:56:05;101865.19;;;11.11;nan
59053;BME280;44843;44.728;10.396;2023-02-17T10:58:54;101861.41;;;11.20;nan
59053;BME280;44843;44.728;10.396;2023-02-17T11:01:17;101864.00;;;11.20;nan
59053;BME280;44843;44.728;10.396;2023-02-17T11:03:42;101857.59;;;11.28;nan
59053;BME280;44843;44.728;10.396;2023-02-17T11:06:19;101857.09;;;11.41;nan
59053;BME280;44843;44.728;10.396;2023-02-17T11:08:45;101853.06;;;11.55;nan
59053;BME280;44843;44.728;10.396;2023-02-17T11:13:42;61389.06;;;-146.16;100.00
59053;BME280;44843;44.728;10.396;2023-02-17T11:16:19;61389.06;;;-146.16;100.00
59053;BME280;44843;44.728;10.396;2023-02-17T11:18:45;61389.06;;;-146.16;100.00
59053;BME280;44843;44.728;10.396;2023-02-17T11:21:11;61389.06;;;-146.16;100.00
59053;BME280;44843;44.728;10.396;2023-02-17T11:23:59;61389.06;;;-146.16;100.00
59053;BME280;44843;44.728;10.396;2023-02-17T11:26:23;61389.06;;;-146.16;100.00
59053;BME280;44843;44.728;10.396;2023-02-17T11:28:49;101852.06;;;11.58;nan
59053;BME280;44843;44.728;10.396;2023-02-17T11:31:25;101828.94;;;11.49;nan
59053;BME280;44843;44.728;10.396;2023-02-17T11:33:51;101820.34;;;11.67;nan
59053;BME280;44843;44.728;10.396;2023-02-17T11:36:24;101810.81;;;11.66;nan
59053;BME280;44843;44.728;10.396;2023-02-17T11:38:49;101812.88;;;11.80;nan
59053;BME280;44843;44.728;10.396;2023-02-17T11:41:15;101816.22;;;11.84;nan
59053;BME280;44843;44.728;10.396;2023-02-17T11:44:02;101809.00;;;11.90;nan
59053;BME280;44843;44.728;10.396;2023-02-17T11:46:34;101802.66;;;11.74;nan
59053;BME280;44843;44.728;10.396;2023-02-17T11:54:28;101793.59;;;11.83;nan
59053;BME280;44843;44.728;10.396;2023-02-17T12:00:13;101769.59;;;12.15;nan
59053;BME280;44843;44.728;10.396;2023-02-17T12:10:30;101760.16;;;12.52;nan
59053;BME280;44843;44.728;10.396;2023-02-17T12:25:26;101745.22;;;12.54;nan
59053;BME280;44843;44.728;10.396;2023-02-17T12:35:48;101729.47;;;12.56;nan
59053;BME280;44843;44.728;10.396;2023-02-17T12:38:18;101714.16;;;12.28;nan
59053;BME280;44843;44.728;10.396;2023-02-17T12:40:46;101718.28;;;12.33;nan
59053;BME280;44843;44.728;10.396;2023-02-17T12:43:21;101707.13;;;12.49;nan
59053;BME280;44843;44.728;10.396;2023-02-17T12:45:49;101701.38;;;12.41;nan
59053;BME280;44843;44.728;10.396;2023-02-17T12:48:17;101707.81;;;12.52;nan
59053;BME280;44843;44.728;10.396;2023-02-17T12:50:57;101713.13;;;12.70;nan
59053;BME280;44843;44.728;10.396;2023-02-17T12:53:29;101698.06;;;12.56;nan
59053;BME280;44843;44.728;10.396;2023-02-17T12:55:58;101696.38;;;12.74;nan
59053;BME280;44843;44.728;10.396;2023-02-17T12:58:25;101700.88;;;12.89;nan
59053;BME280;44843;44.728;10.396;2023-02-17T13:00:53;101696.47;;;13.09;nan
59053;BME280;44843;44.728;10.396;2023-02-17T13:03:22;101695.03;;;13.20;nan
59053;BME280;44843;44.728;10.396;2023-02-17T13:08:20;101697.03;;;13.15;nan
59053;BME280;44843;44.728;10.396;2023-02-17T13:10:58;101695.22;;;12.98;nan
59053;BME280;44843;44.728;10.396;2023-02-17T13:13:28;101691.41;;;12.87;nan
59053;BME280;44843;44.728;10.396;2023-02-17T13:16:27;101679.66;;;12.95;nan
59053;BME280;44843;44.728;10.396;2023-02-17T13:18:46;101685.63;;;12.80;nan
59053;BME280;44843;44.728;10.396;2023-02-17T13:24:04;101676.84;;;12.81;nan
59053;BME280;44843;44.728;10.396;2023-02-17T13:26:36;101676.50;;;12.70;nan
59053;BME280;44843;44.728;10.396;2023-02-17T13:29:44;101671.31;;;12.87;nan
59053;BME280;44843;44.728;10.396;2023-02-17T13:31:51;101666.28;;;13.02;nan
59053;BME280;44843;44.728;10.396;2023-02-17T13:36:48;101661.94;;;13.01;nan
59053;BME280;44843;44.728;10.396;2023-02-17T13:41:51;101665.22;;;13.06;nan
59053;BME280;44843;44.728;10.396;2023-02-17T13:44:28;101664.75;;;13.15;nan
59053;BME280;44843;44.728;10.396;2023-02-17T13:46:55;101664.34;;;13.05;nan
59053;BME280;44843;44.728;10.396;2023-02-17T13:49:23;101663.91;;;13.14;nan
59053;BME280;44843;44.728;10.396;2023-02-17T13:51:51;101660.13;;;13.20;nan
59053;BME280;44843;44.728;10.396;2023-02-17T13:54:18;101651.66;;;13.34;nan
59053;BME280;44843;44.728;10.396;2023-02-17T13:56:48;101662.56;;;13.42;nan
59053;BME280;44843;44.728;10.396;2023-02-17T13:59:15;101660.19;;;13.37;nan
59053;BME280;44843;44.728;10.396;2023-02-17T14:01:42;101660.06;;;13.41;nan
59053;BME280;44843;44.728;10.396;2023-02-17T14:04:16;101655.41;;;13.46;nan
59053;BME280;44843;44.728;10.396;2023-02-17T14:06:42;101653.41;;;13.51;nan
59053;BME280;44843;44.728;10.396;2023-02-17T14:09:11;101654.34;;;13.32;nan
59053;BME280;44843;44.728;10.396;2023-02-17T14:11:38;101651.06;;;13.27;nan
59053;BME280;44843;44.728;10.396;2023-02-17T14:14:05;101648.53;;;13.26;nan
59053;BME280;44843;44.728;10.396;2023-02-17T14:16:36;101651.38;;;13.21;nan
59053;BME280;44843;44.728;10.396;2023-02-17T14:19:06;101651.06;;;13.27;nan
59053;BME280;44843;44.728;10.396;2023-02-17T14:21:32;101654.22;;;13.16;nan
59053;BME280;44843;44.728;10.396;2023-02-17T14:23:58;101648.75;;;13.21;nan
59053;BME280;44843;44.728;10.396;2023-02-17T14:28:58;101649.75;;;13.18;nan